Time;durP1;ratioP1;P1;durP2;ratioP2;P2;SDS_P1;SDS_P2;PMS_P1;PMS_P2;Temp;Humidity;BMP_temperature;BMP_pressure;BME280_temperature;BME280_humidity;BME280_pressure;Samples;Min_cycle;Max_cycle;Signal;HPM_P1;HPM_P2
2020/12/18 00:01:31;;;;;;;26.40;12.10;;;3.80;99.90;;;;;;5046239;28;20520;-55
2020/12/18 00:03:58;;;;;;;21.33;11.20;;;3.80;99.90;;;;;;5049650;28;20930;-55
2020/12/18 00:06:30;;;;;;;21.83;11.53;;;3.70;99.90;;;;;;5081531;22;20492;-62
2020/12/18 00:08:56;;;;;;;17.10;9.80;;;3.70;99.90;;;;;;5066755;28;20447;-60
2020/12/18 00:11:23;;;;;;;22.97;10.30;;;3.80;99.90;;;;;;5068162;28;20421;-60
2020/12/18 00:13:50;;;;;;;19.70;10.70;;;3.80;99.90;;;;;;5042644;28;20321;-60
2020/12/18 00:16:19;;;;;;;18.23;9.23;;;3.80;99.90;;;;;;5068020;28;20860;-59
2020/12/18 00:18:45;;;;;;;18.47;10.30;;;3.80;99.90;;;;;;5051261;28;20438;-60
2020/12/18 00:21:15;;;;;;;22.80;10.47;;;3.80;99.90;;;;;;5051204;28;20804;-66
2020/12/18 00:23:40;;;;;;;19.33;9.77;;;3.80;99.90;;;;;;5066942;28;20420;-62
2020/12/18 00:26:06;;;;;;;18.90;10.70;;;3.80;99.90;;;;;;5056506;28;20486;-61
2020/12/18 00:28:32;;;;;;;17.90;10.40;;;3.90;99.90;;;;;;5066222;28;20637;-60
2020/12/18 00:30:57;;;;;;;23.57;12.40;;;3.90;99.90;;;;;;5070800;28;20181;-61
2020/12/18 00:33:23;;;;;;;24.23;11.60;;;3.90;99.90;;;;;;5068963;28;20253;-64
2020/12/18 00:35:49;;;;;;;17.60;9.67;;;3.90;99.90;;;;;;5070012;28;20203;-61
2020/12/18 00:38:15;;;;;;;21.43;10.27;;;3.90;99.90;;;;;;5066854;28;20435;-62
2020/12/18 00:40:40;;;;;;;16.80;9.40;;;3.90;99.90;;;;;;5069462;28;20175;-60
2020/12/18 00:43:06;;;;;;;20.83;11.40;;;3.90;99.90;;;;;;5069349;28;20219;-60
2020/12/18 00:45:32;;;;;;;18.50;10.30;;;3.80;99.90;;;;;;5062742;28;20209;-60
2020/12/18 00:47:59;;;;;;;18.77;9.60;;;3.80;99.90;;;;;;5067689;28;20433;-60
2020/12/18 00:50:24;;;;;;;18.13;10.17;;;3.80;99.90;;;;;;5069986;28;20572;-60
2020/12/18 00:52:50;;;;;;;18.77;10.27;;;3.80;99.90;;;;;;5068572;28;20507;-61
2020/12/18 00:55:15;;;;;;;19.00;9.90;;;3.80;99.90;;;;;;5067993;28;20170;-60
2020/12/18 00:57:41;;;;;;;19.30;10.50;;;3.80;99.90;;;;;;5070270;28;20256;-61
2020/12/18 01:00:08;;;;;;;21.47;9.93;;;3.70;99.90;;;;;;5068374;28;20195;-62
2020/12/18 01:02:34;;;;;;;18.23;9.50;;;3.70;99.90;;;;;;5064801;28;20430;-60
2020/12/18 01:04:59;;;;;;;19.90;9.60;;;3.70;99.90;;;;;;5069561;28;20997;-61
2020/12/18 01:07:25;;;;;;;20.10;10.60;;;3.70;99.90;;;;;;5049949;28;20217;-60
2020/12/18 01:09:51;;;;;;;16.90;10.20;;;3.70;99.90;;;;;;5067930;28;20186;-62
2020/12/18 01:12:18;;;;;;;16.77;8.80;;;3.70;99.90;;;;;;5069558;28;20423;-63
2020/12/18 01:14:43;;;;;;;19.17;10.20;;;3.70;99.90;;;;;;5073324;28;20447;-63
2020/12/18 01:17:09;;;;;;;19.23;10.40;;;3.70;99.90;;;;;;5053496;28;20212;-59
2020/12/18 01:19:36;;;;;;;19.63;10.00;;;3.70;99.90;;;;;;5070446;28;20560;-60
2020/12/18 01:22:03;;;;;;;19.47;10.60;;;3.80;99.90;;;;;;5068696;28;20269;-64
2020/12/18 01:24:28;;;;;;;25.80;11.60;;;3.70;99.90;;;;;;5039638;28;20441;-61
2020/12/18 01:26:54;;;;;;;18.40;9.77;;;3.80;99.90;;;;;;5063974;28;20494;-58
2020/12/18 01:29:20;;;;;;;19.80;11.07;;;3.80;99.90;;;;;;5061014;28;20171;-61
2020/12/18 01:31:45;;;;;;;22.47;10.73;;;3.80;99.90;;;;;;5065806;28;20213;-57
2020/12/18 01:34:11;;;;;;;18.27;10.30;;;3.80;99.90;;;;;;5042568;28;20332;-59
2020/12/18 01:36:36;;;;;;;19.60;10.17;;;3.80;99.90;;;;;;5062746;28;20201;-61
2020/12/18 01:39:03;;;;;;;20.00;10.90;;;3.80;99.90;;;;;;5055151;28;20194;-58
2020/12/18 01:41:29;;;;;;;21.50;10.30;;;3.80;99.90;;;;;;5057365;28;20436;-59
2020/12/18 01:43:55;;;;;;;19.23;10.70;;;3.80;99.90;;;;;;5039779;28;20433;-57
2020/12/18 01:46:25;;;;;;;17.50;10.30;;;3.80;99.90;;;;;;5043806;28;20718;-59
2020/12/18 01:48:51;;;;;;;23.47;13.10;;;3.80;99.90;;;;;;5057109;28;20217;-61
2020/12/18 01:51:17;;;;;;;20.93;10.57;;;3.80;99.90;;;;;;5059845;28;20490;-59
2020/12/18 01:53:43;;;;;;;18.70;10.57;;;3.80;99.90;;;;;;5063248;28;20625;-61
2020/12/18 01:56:11;;;;;;;22.80;11.23;;;3.80;99.90;;;;;;5052658;28;20194;-59
2020/12/18 01:58:40;;;;;;;20.63;11.60;;;3.80;99.90;;;;;;5061766;28;20429;-62
2020/12/18 02:01:08;;;;;;;19.60;10.70;;;3.80;99.90;;;;;;5055369;28;20475;-63
2020/12/18 02:03:34;;;;;;;16.80;9.60;;;3.80;99.90;;;;;;5053271;28;20490;-63
2020/12/18 02:06:09;;;;;;;23.00;10.77;;;3.80;99.90;;;;;;5066051;28;20572;-58
2020/12/18 02:08:35;;;;;;;20.73;10.17;;;3.80;99.90;;;;;;5051073;28;20938;-62
2020/12/18 02:11:01;;;;;;;19.20;10.00;;;3.80;99.90;;;;;;5057039;28;20425;-58
2020/12/18 02:13:27;;;;;;;17.20;9.80;;;3.80;99.90;;;;;;5054170;28;21535;-59
2020/12/18 02:15:54;;;;;;;17.70;9.27;;;3.80;99.90;;;;;;5055809;28;20200;-60
2020/12/18 02:18:24;;;;;;;17.60;9.70;;;3.80;99.90;;;;;;5056014;28;20517;-59
2020/12/18 02:20:53;;;;;;;22.50;11.77;;;3.80;99.90;;;;;;5056803;28;20455;-59
2020/12/18 02:23:18;;;;;;;17.50;9.90;;;3.80;99.90;;;;;;5056492;28;20489;-59
2020/12/18 02:25:45;;;;;;;16.03;9.10;;;3.80;99.90;;;;;;5053967;28;20476;-58
2020/12/18 02:28:12;;;;;;;19.80;10.77;;;3.90;99.90;;;;;;5057612;28;20197;-59
2020/12/18 02:30:39;;;;;;;17.27;9.30;;;3.80;99.90;;;;;;5050340;28;20463;-62
2020/12/18 02:33:08;;;;;;;18.60;9.70;;;3.80;99.90;;;;;;5063297;28;20431;-60
2020/12/18 02:35:34;;;;;;;20.33;9.70;;;3.90;99.90;;;;;;5048336;28;20453;-59
2020/12/18 02:38:01;;;;;;;17.20;9.70;;;3.80;99.90;;;;;;5067116;28;20470;-60
2020/12/18 02:40:27;;;;;;;19.23;9.67;;;3.80;99.90;;;;;;5049943;28;20487;-63
2020/12/18 02:42:53;;;;;;;15.37;8.87;;;3.90;99.90;;;;;;5054407;28;20482;-60
2020/12/18 02:45:19;;;;;;;19.20;9.93;;;3.90;99.90;;;;;;5071276;28;20197;-60
2020/12/18 02:47:45;;;;;;;19.17;9.97;;;3.90;99.90;;;;;;5085070;28;20452;-61
2020/12/18 02:50:10;;;;;;;16.00;9.00;;;3.90;99.90;;;;;;5060431;28;20207;-61
2020/12/18 02:52:37;;;;;;;13.90;8.27;;;3.90;99.90;;;;;;5079504;28;20436;-63
2020/12/18 02:55:03;;;;;;;15.87;8.17;;;3.80;99.90;;;;;;5087977;28;20196;-60
2020/12/18 02:57:29;;;;;;;14.73;7.90;;;3.90;99.90;;;;;;5063850;28;20977;-61
2020/12/18 02:59:54;;;;;;;15.73;8.90;;;3.80;99.90;;;;;;5057901;28;20455;-58
2020/12/18 03:02:20;;;;;;;15.40;9.20;;;3.80;99.90;;;;;;5064714;28;20550;-60
2020/12/18 03:04:46;;;;;;;15.87;9.57;;;3.80;99.90;;;;;;5049009;28;20206;-60
2020/12/18 03:07:11;;;;;;;15.53;7.70;;;3.90;99.90;;;;;;5065466;28;20214;-59
2020/12/18 03:09:37;;;;;;;15.67;8.17;;;3.90;99.90;;;;;;5064074;28;20166;-59
2020/12/18 03:12:03;;;;;;;15.57;7.97;;;3.90;99.90;;;;;;5067880;28;20181;-63
2020/12/18 03:14:29;;;;;;;15.10;8.87;;;3.90;99.90;;;;;;5066328;28;20497;-60
2020/12/18 03:16:55;;;;;;;16.53;8.43;;;3.90;99.90;;;;;;5068546;28;21242;-60
2020/12/18 03:19:20;;;;;;;16.07;8.17;;;3.90;99.90;;;;;;5069316;28;20171;-66
2020/12/18 03:21:46;;;;;;;14.00;8.00;;;3.90;99.90;;;;;;5061160;28;20179;-60
2020/12/18 03:24:11;;;;;;;15.23;8.03;;;3.90;99.90;;;;;;5067823;28;20182;-60
2020/12/18 03:26:37;;;;;;;13.50;8.37;;;3.90;99.90;;;;;;5065121;28;20198;-60
2020/12/18 03:29:03;;;;;;;14.50;8.20;;;3.90;99.90;;;;;;5068691;28;20312;-60
2020/12/18 03:31:28;;;;;;;16.33;8.77;;;3.90;99.90;;;;;;5065758;28;20178;-60
2020/12/18 03:33:54;;;;;;;17.90;9.20;;;3.90;99.90;;;;;;5059224;28;20175;-59
2020/12/18 03:36:20;;;;;;;17.00;9.20;;;3.90;99.90;;;;;;5060876;28;20210;-60
2020/12/18 03:38:46;;;;;;;21.30;9.20;;;3.90;99.90;;;;;;5064602;28;20458;-60
2020/12/18 03:41:11;;;;;;;19.70;9.67;;;3.90;99.90;;;;;;5047606;28;20195;-60
2020/12/18 03:43:38;;;;;;;15.50;8.77;;;3.90;99.90;;;;;;5041516;28;20540;-59
2020/12/18 03:46:03;;;;;;;15.90;8.60;;;3.90;99.90;;;;;;5063833;28;20470;-61
2020/12/18 03:48:30;;;;;;;14.43;8.67;;;3.90;99.90;;;;;;5039530;28;20261;-60
2020/12/18 03:50:55;;;;;;;15.50;8.33;;;3.90;99.90;;;;;;5064516;28;20191;-60
2020/12/18 03:53:21;;;;;;;15.73;8.90;;;3.90;99.90;;;;;;5065330;28;20428;-60
2020/12/18 03:55:47;;;;;;;17.80;7.80;;;3.90;99.90;;;;;;5064087;28;20202;-61
2020/12/18 03:58:12;;;;;;;19.30;7.90;;;3.90;99.90;;;;;;5071611;28;20628;-59
2020/12/18 04:00:38;;;;;;;12.40;7.47;;;3.90;99.90;;;;;;5065017;28;20181;-59
2020/12/18 04:03:04;;;;;;;14.20;8.40;;;3.90;99.90;;;;;;5048597;28;20614;-63
2020/12/18 04:05:30;;;;;;;13.07;7.33;;;3.90;99.90;;;;;;5070541;28;20591;-60
2020/12/18 04:07:56;;;;;;;14.30;7.83;;;3.90;99.90;;;;;;5070137;28;20809;-59
2020/12/18 04:10:22;;;;;;;15.30;7.63;;;4.00;99.90;;;;;;5069902;28;20420;-60
2020/12/18 04:12:48;;;;;;;15.67;8.63;;;3.90;99.90;;;;;;5068531;28;20266;-60
2020/12/18 04:15:14;;;;;;;15.50;9.10;;;4.00;99.90;;;;;;5071960;28;20515;-59
2020/12/18 04:17:41;;;;;;;19.03;7.43;;;4.00;99.90;;;;;;5071614;28;20457;-59
2020/12/18 04:20:07;;;;;;;13.20;7.20;;;4.00;99.90;;;;;;5068791;28;20420;-59
2020/12/18 04:22:33;;;;;;;14.53;7.73;;;4.00;99.90;;;;;;5067239;28;20526;-60
2020/12/18 04:24:58;;;;;;;17.60;8.10;;;4.00;99.90;;;;;;5044278;28;20218;-59
2020/12/18 04:27:24;;;;;;;13.93;7.50;;;4.00;99.90;;;;;;5070714;28;21264;-60
2020/12/18 04:29:50;;;;;;;14.93;8.17;;;4.00;99.90;;;;;;5065497;28;20168;-60
2020/12/18 04:32:16;;;;;;;13.43;7.63;;;3.90;99.90;;;;;;5063318;28;20185;-59
2020/12/18 04:34:42;;;;;;;18.07;8.93;;;4.00;99.90;;;;;;5070157;28;20467;-60
2020/12/18 04:37:07;;;;;;;18.67;8.80;;;4.00;99.90;;;;;;5066014;28;20479;-60
2020/12/18 04:39:34;;;;;;;14.60;8.17;;;4.00;99.90;;;;;;5066277;28;20186;-59
2020/12/18 04:42:01;;;;;;;19.57;8.43;;;4.00;99.90;;;;;;5064132;28;20756;-59
2020/12/18 04:44:27;;;;;;;20.80;8.53;;;4.00;99.90;;;;;;5068419;28;20436;-60
2020/12/18 04:46:56;;;;;;;15.53;8.07;;;3.90;99.90;;;;;;5048238;28;20978;-59
2020/12/18 04:49:24;;;;;;;17.07;8.83;;;3.90;99.90;;;;;;5070595;28;20444;-60
2020/12/18 04:51:53;;;;;;;19.13;9.40;;;4.00;99.90;;;;;;5063427;28;20428;-61
2020/12/18 04:54:22;;;;;;;17.83;9.20;;;3.90;99.90;;;;;;5064670;28;20473;-59
2020/12/18 04:56:50;;;;;;;15.90;8.83;;;4.00;99.90;;;;;;5069584;28;20593;-59
2020/12/18 04:59:24;;;;;;;15.70;8.17;;;4.00;99.90;;;;;;5051325;28;20855;-61
2020/12/18 05:01:54;;;;;;;12.50;8.10;;;3.90;99.90;;;;;;5070927;28;20429;-59
2020/12/18 05:04:21;;;;;;;13.70;8.23;;;3.90;99.90;;;;;;5064129;28;20425;-60
2020/12/18 05:06:47;;;;;;;14.87;8.43;;;3.90;99.90;;;;;;5069081;28;21007;-60
2020/12/18 05:09:13;;;;;;;13.17;7.83;;;3.90;99.90;;;;;;5061832;28;20530;-59
2020/12/18 05:11:39;;;;;;;16.97;8.60;;;4.00;99.90;;;;;;5068661;28;20413;-60
2020/12/18 05:14:04;;;;;;;18.60;8.00;;;3.90;99.90;;;;;;5068275;28;20605;-60
2020/12/18 05:16:30;;;;;;;16.43;8.23;;;4.00;99.90;;;;;;5073865;28;20752;-59
2020/12/18 05:19:03;;;;;;;14.20;7.97;;;3.90;99.90;;;;;;5050411;28;20282;-59
2020/12/18 05:21:29;;;;;;;14.53;7.53;;;3.90;99.90;;;;;;5048830;28;20224;-60
2020/12/18 05:23:55;;;;;;;10.70;6.70;;;4.00;99.90;;;;;;5066836;28;20433;-59
2020/12/18 05:26:29;;;;;;;18.13;7.67;;;3.90;99.90;;;;;;5069668;28;20468;-60
2020/12/18 05:29:09;;;;;;;11.67;7.30;;;4.00;99.90;;;;;;5060590;28;20487;-59
2020/12/18 05:31:35;;;;;;;14.10;7.90;;;4.00;99.90;;;;;;5068563;28;20428;-60
2020/12/18 05:34:02;;;;;;;13.77;7.83;;;4.00;99.90;;;;;;5069643;28;20404;-59
2020/12/18 05:36:29;;;;;;;14.77;8.50;;;4.00;99.90;;;;;;5066252;28;20455;-58
2020/12/18 05:38:55;;;;;;;15.60;8.80;;;3.90;99.90;;;;;;5063348;28;20483;-60
2020/12/18 05:41:23;;;;;;;14.63;8.23;;;3.90;99.90;;;;;;5066214;28;20468;-61
2020/12/18 05:43:50;;;;;;;12.97;8.63;;;3.90;99.90;;;;;;5070123;28;20471;-59
2020/12/18 05:46:20;;;;;;;14.83;7.87;;;3.90;99.90;;;;;;5068612;28;20486;-60
2020/12/18 05:48:54;;;;;;;15.70;8.93;;;3.90;99.90;;;;;;5067793;28;20436;-60
2020/12/18 05:51:31;;;;;;;14.80;7.67;;;3.90;99.90;;;;;;5063621;28;20424;-60
2020/12/18 05:54:12;;;;;;;16.17;8.00;;;3.90;99.90;;;;;;5048527;28;20432;-61
2020/12/18 05:56:39;;;;;;;13.47;8.30;;;3.90;99.90;;;;;;5058499;28;20535;-60
2020/12/18 05:59:07;;;;;;;13.47;8.30;;;3.90;99.90;;;;;;5067584;28;20440;-59
2020/12/18 06:01:38;;;;;;;13.13;7.77;;;3.90;99.90;;;;;;5066767;28;20433;-62
2020/12/18 06:04:09;;;;;;;17.47;8.67;;;3.90;99.90;;;;;;5065400;28;20435;-60
2020/12/18 06:06:42;;;;;;;13.97;7.67;;;3.90;99.90;;;;;;5081116;22;21226;-55
2020/12/18 06:09:09;;;;;;;14.60;8.27;;;3.90;99.90;;;;;;5041820;28;20536;-55
2020/12/18 06:11:36;;;;;;;17.47;8.40;;;3.90;99.90;;;;;;5045210;28;20425;-56
2020/12/18 06:14:02;;;;;;;19.13;9.20;;;3.90;99.90;;;;;;5038610;28;20441;-56
2020/12/18 06:16:30;;;;;;;16.30;8.30;;;3.90;99.90;;;;;;5047249;28;20453;-53
2020/12/18 06:19:05;;;;;;;14.80;8.57;;;3.90;99.90;;;;;;5043223;28;20478;-55
2020/12/18 06:21:32;;;;;;;13.87;8.80;;;3.90;99.90;;;;;;5032959;28;20454;-55
2020/12/18 06:23:59;;;;;;;14.57;8.60;;;3.90;99.90;;;;;;5036938;28;20445;-56
2020/12/18 06:26:26;;;;;;;15.17;8.53;;;3.80;99.90;;;;;;5051464;28;20558;-55
2020/12/18 06:28:52;;;;;;;18.10;9.57;;;3.90;99.90;;;;;;5038729;28;20434;-56
2020/12/18 06:31:30;;;;;;;19.70;10.40;;;3.90;99.90;;;;;;5032294;28;20435;-54
2020/12/18 06:33:58;;;;;;;15.30;9.90;;;3.90;99.90;;;;;;5035201;28;20944;-55
2020/12/18 06:36:48;;;;;;;20.73;9.63;;;3.90;99.90;;;;;;5045290;28;20559;-58
2020/12/18 06:39:32;;;;;;;14.07;8.73;;;3.90;99.90;;;;;;5039428;28;20860;-56
2020/12/18 06:42:16;;;;;;;18.17;8.80;;;3.90;99.90;;;;;;5039406;28;20779;-58
2020/12/18 06:44:56;;;;;;;18.60;8.80;;;3.90;99.90;;;;;;5033348;28;20948;-58
2020/12/18 06:47:25;;;;;;;21.30;9.00;;;3.90;99.90;;;;;;5033931;28;20441;-55
2020/12/18 06:49:57;;;;;;;20.40;9.43;;;3.90;99.90;;;;;;5039918;28;20479;-58
2020/12/18 06:52:56;;;;;;;16.30;8.50;;;3.90;99.90;;;;;;5033224;28;20419;-55
2020/12/18 06:55:25;;;;;;;21.27;9.30;;;3.90;99.90;;;;;;5008587;28;20446;-53
2020/12/18 06:58:06;;;;;;;12.60;8.37;;;3.90;99.90;;;;;;5040757;28;20556;-56
2020/12/18 07:00:34;;;;;;;14.60;8.20;;;3.90;99.90;;;;;;5029718;28;20692;-56
2020/12/18 07:03:00;;;;;;;16.10;8.30;;;3.90;99.90;;;;;;5036839;28;20465;-57
2020/12/18 07:05:35;;;;;;;17.80;9.47;;;4.00;99.90;;;;;;5037453;28;20452;-54
2020/12/18 07:08:13;;;;;;;13.80;9.07;;;4.00;99.90;;;;;;5035584;28;21534;-57
2020/12/18 07:10:40;;;;;;;14.87;8.13;;;4.00;99.90;;;;;;5039402;28;20494;-54
2020/12/18 07:13:08;;;;;;;17.63;8.90;;;4.00;99.90;;;;;;5033867;28;20424;-53
2020/12/18 07:15:45;;;;;;;24.20;9.20;;;4.00;99.90;;;;;;5036730;28;20437;-53
2020/12/18 07:18:20;;;;;;;16.77;8.27;;;4.00;99.90;;;;;;5036051;28;20441;-58
2020/12/18 07:21:03;;;;;;;17.07;9.23;;;4.00;99.90;;;;;;5037441;28;20429;-55
2020/12/18 07:23:31;;;;;;;16.73;8.37;;;4.00;99.90;;;;;;5026639;28;20478;-56
2020/12/18 07:25:57;;;;;;;14.40;8.30;;;4.00;99.90;;;;;;5033965;28;20465;-53
2020/12/18 07:28:28;;;;;;;22.43;9.10;;;4.00;99.90;;;;;;5031073;28;20488;-55
2020/12/18 07:30:55;;;;;;;14.40;8.53;;;4.00;99.90;;;;;;5039295;28;20425;-55
2020/12/18 07:33:22;;;;;;;16.13;8.07;;;4.00;99.90;;;;;;5042397;28;20479;-57
2020/12/18 07:35:49;;;;;;;16.17;8.60;;;4.00;99.90;;;;;;5048226;28;20434;-56
2020/12/18 07:38:23;;;;;;;21.23;10.10;;;4.10;99.90;;;;;;5032494;28;20451;-59
2020/12/18 07:40:52;;;;;;;16.57;9.27;;;4.10;99.90;;;;;;5038441;28;20434;-57
2020/12/18 07:43:22;;;;;;;13.63;8.27;;;4.10;99.90;;;;;;5037071;28;20499;-57
2020/12/18 07:45:50;;;;;;;12.90;8.50;;;4.10;99.90;;;;;;5035019;28;20465;-57
2020/12/18 07:48:22;;;;;;;14.70;8.77;;;4.20;99.90;;;;;;5033471;28;20602;-55
2020/12/18 07:51:01;;;;;;;15.47;9.50;;;4.20;99.90;;;;;;5038564;28;20432;-57
2020/12/18 07:53:29;;;;;;;14.70;9.17;;;4.20;99.90;;;;;;5039297;28;20969;-56
2020/12/18 07:56:00;;;;;;;19.80;10.20;;;4.20;99.90;;;;;;5030063;28;20440;-57
2020/12/18 07:58:27;;;;;;;15.83;9.27;;;4.20;99.90;;;;;;5037144;28;20450;-53
2020/12/18 08:01:10;;;;;;;19.30;9.33;;;4.20;99.90;;;;;;5033219;28;20485;-56
2020/12/18 08:03:43;;;;;;;16.00;9.80;;;4.30;99.90;;;;;;5036317;28;20443;-57
2020/12/18 08:06:15;;;;;;;18.00;10.30;;;4.20;99.90;;;;;;5030097;28;20722;-54
2020/12/18 08:08:42;;;;;;;15.17;9.70;;;4.20;99.90;;;;;;5030077;28;21047;-55
2020/12/18 08:11:18;;;;;;;20.67;9.93;;;4.20;99.90;;;;;;5035230;28;20428;-55
2020/12/18 08:13:44;;;;;;;16.67;10.00;;;4.20;99.90;;;;;;5035619;28;20540;-58
2020/12/18 08:16:17;;;;;;;17.40;9.50;;;4.20;99.90;;;;;;5039041;28;20441;-55
2020/12/18 08:18:48;;;;;;;13.53;9.17;;;4.20;99.90;;;;;;5039005;28;20449;-56
2020/12/18 08:21:14;;;;;;;16.87;9.23;;;4.20;99.90;;;;;;5031266;28;20444;-57
2020/12/18 08:23:51;;;;;;;18.47;9.47;;;4.20;99.90;;;;;;5032119;28;20445;-59
2020/12/18 08:26:18;;;;;;;14.23;9.13;;;4.20;99.90;;;;;;5037365;28;20464;-58
2020/12/18 08:28:45;;;;;;;17.70;10.37;;;4.30;99.90;;;;;;5041099;28;20429;-55
2020/12/18 08:31:13;;;;;;;18.70;10.20;;;4.30;99.90;;;;;;5042894;28;20418;-57
2020/12/18 08:33:53;;;;;;;17.20;10.60;;;4.30;99.90;;;;;;5038059;28;20444;-58
2020/12/18 08:36:23;;;;;;;23.20;10.87;;;4.40;99.90;;;;;;5039585;28;20432;-55
2020/12/18 08:39:09;;;;;;;15.90;9.60;;;4.40;99.90;;;;;;5029594;28;20521;-58
2020/12/18 08:41:54;;;;;;;15.33;9.30;;;4.50;99.90;;;;;;5032074;28;22906;-57
2020/12/18 08:44:35;;;;;;;18.30;10.80;;;4.50;99.90;;;;;;5042540;28;20433;-57
2020/12/18 08:47:01;;;;;;;18.07;10.20;;;4.50;99.90;;;;;;5041811;28;20454;-56
2020/12/18 08:49:28;;;;;;;20.73;10.93;;;4.60;99.90;;;;;;5040496;28;20444;-56
2020/12/18 08:51:56;;;;;;;18.57;10.27;;;4.60;99.90;;;;;;5033914;28;20714;-54
2020/12/18 08:54:48;;;;;;;17.93;10.97;;;4.60;99.90;;;;;;5029519;28;21059;-55
2020/12/18 08:57:23;;;;;;;20.93;12.13;;;4.60;99.90;;;;;;5034756;28;20459;-57
2020/12/18 08:59:56;;;;;;;24.47;11.47;;;4.60;99.90;;;;;;5033045;28;21222;-55
2020/12/18 09:02:22;;;;;;;22.23;11.60;;;4.60;99.90;;;;;;5038775;28;20446;-55
2020/12/18 09:05:06;;;;;;;23.23;12.83;;;4.60;99.90;;;;;;5037620;28;20492;-56
2020/12/18 09:07:42;;;;;;;30.93;12.70;;;4.60;99.90;;;;;;5024618;28;20265;-56
2020/12/18 09:10:09;;;;;;;28.23;13.10;;;4.70;99.90;;;;;;5017480;28;20421;-56
2020/12/18 09:12:43;;;;;;;32.10;13.90;;;4.80;99.90;;;;;;5027699;28;20453;-57
2020/12/18 09:15:26;;;;;;;40.87;17.33;;;4.80;99.90;;;;;;5034823;28;20986;-57
2020/12/18 09:18:07;;;;;;;32.80;15.60;;;4.80;99.90;;;;;;5032542;28;21421;-54
2020/12/18 09:20:35;;;;;;;33.53;14.33;;;4.80;99.90;;;;;;5033256;28;20429;-57
2020/12/18 09:23:04;;;;;;;40.30;15.50;;;4.80;99.90;;;;;;5025997;28;20440;-57
2020/12/18 09:25:35;;;;;;;39.83;16.50;;;4.90;99.90;;;;;;5027078;28;20489;-56
2020/12/18 09:28:01;;;;;;;55.23;17.50;;;4.90;99.90;;;;;;5029340;28;20500;-57
2020/12/18 09:30:29;;;;;;;39.53;16.47;;;4.90;99.90;;;;;;5030996;28;21194;-55
2020/12/18 09:33:11;;;;;;;58.00;16.90;;;4.90;99.90;;;;;;5028202;28;20176;-59
2020/12/18 09:35:38;;;;;;;55.17;17.67;;;4.90;99.90;;;;;;5028065;28;20456;-56
2020/12/18 09:38:04;;;;;;;49.33;17.30;;;4.90;99.90;;;;;;5027053;28;20454;-56
2020/12/18 09:40:30;;;;;;;68.13;18.80;;;4.80;99.90;;;;;;5032282;28;20454;-58
2020/12/18 09:42:56;;;;;;;117.67;21.87;;;4.80;99.90;;;;;;5028007;28;20438;-56
2020/12/18 09:45:22;;;;;;;77.83;18.87;;;4.80;99.90;;;;;;5030846;28;20200;-57
2020/12/18 09:47:47;;;;;;;42.10;16.90;;;4.80;99.90;;;;;;5030687;28;20852;-57
2020/12/18 09:50:13;;;;;;;110.10;20.43;;;4.90;99.90;;;;;;5035518;28;20961;-55
2020/12/18 09:52:39;;;;;;;41.70;17.40;;;4.90;99.90;;;;;;5029559;28;20266;-60
2020/12/18 09:55:04;;;;;;;75.50;18.80;;;4.90;99.90;;;;;;5034479;28;20210;-55
2020/12/18 09:57:34;;;;;;;45.70;18.00;;;5.00;99.90;;;;;;5029573;28;20840;-57
2020/12/18 10:00:04;;;;;;;54.10;17.90;;;5.10;99.90;;;;;;5033285;28;21310;-56
2020/12/18 10:02:30;;;;;;;57.50;19.10;;;5.10;99.90;;;;;;5035004;28;20499;-56
2020/12/18 10:04:56;;;;;;;60.73;19.17;;;5.20;99.90;;;;;;5025695;28;20468;-55
2020/12/18 10:07:22;;;;;;;52.80;18.20;;;5.30;99.90;;;;;;5024328;28;20222;-55
2020/12/18 10:09:48;;;;;;;70.17;20.60;;;5.40;99.90;;;;;;5027023;28;20273;-53
2020/12/18 10:12:13;;;;;;;60.13;19.40;;;5.40;99.90;;;;;;5028128;28;20444;-54
2020/12/18 10:14:39;;;;;;;48.07;19.17;;;5.40;99.90;;;;;;5027907;28;20182;-57
2020/12/18 10:17:05;;;;;;;52.03;20.13;;;5.50;99.90;;;;;;5034625;28;20350;-55
2020/12/18 10:19:30;;;;;;;52.90;20.00;;;5.60;99.90;;;;;;5031262;28;20283;-54
2020/12/18 10:21:56;;;;;;;53.17;19.60;;;5.70;99.90;;;;;;5022739;28;20736;-54
2020/12/18 10:24:21;;;;;;;61.37;19.73;;;5.80;99.90;;;;;;5029712;28;20263;-57
2020/12/18 10:26:50;;;;;;;68.13;22.47;;;5.80;99.90;;;;;;5028416;28;20442;-56
2020/12/18 10:29:16;;;;;;;66.27;24.00;;;5.90;99.90;;;;;;5031436;28;20257;-56
2020/12/18 10:31:42;;;;;;;84.83;27.07;;;5.90;99.90;;;;;;5034577;28;20946;-55
2020/12/18 10:34:07;;;;;;;105.70;28.37;;;6.00;99.90;;;;;;5030010;28;20183;-56
2020/12/18 10:36:33;;;;;;;86.73;27.23;;;6.10;99.90;;;;;;5028172;28;20211;-57
2020/12/18 10:38:59;;;;;;;85.77;26.43;;;6.10;99.90;;;;;;5023101;28;20708;-58
2020/12/18 10:41:24;;;;;;;59.10;21.30;;;6.10;99.90;;;;;;5029427;28;20179;-55
2020/12/18 10:43:50;;;;;;;49.97;18.90;;;6.20;99.90;;;;;;5038902;28;20172;-55
2020/12/18 10:46:16;;;;;;;31.60;12.77;;;6.20;99.90;;;;;;5032323;28;20575;-54
2020/12/18 10:48:41;;;;;;;29.83;13.13;;;6.30;99.90;;;;;;5036573;28;20242;-59
2020/12/18 10:51:07;;;;;;;28.67;12.43;;;6.40;99.90;;;;;;5030843;28;20332;-57
2020/12/18 10:53:33;;;;;;;24.77;12.27;;;6.50;99.90;;;;;;5027477;28;20212;-57
2020/12/18 10:56:00;;;;;;;26.63;13.50;;;6.60;99.90;;;;;;5034191;28;20195;-56
2020/12/18 10:58:26;;;;;;;23.20;12.30;;;6.80;99.90;;;;;;5037082;28;20285;-56
2020/12/18 11:00:52;;;;;;;24.30;11.83;;;6.90;99.90;;;;;;5036813;28;20570;-56
2020/12/18 11:03:17;;;;;;;21.30;11.40;;;7.00;99.90;;;;;;5027484;28;20182;-56
2020/12/18 11:05:43;;;;;;;23.50;10.93;;;7.20;99.90;;;;;;5036126;28;20214;-57
2020/12/18 11:08:09;;;;;;;20.03;10.50;;;7.30;99.90;;;;;;5035723;28;20675;-56
2020/12/18 11:10:36;;;;;;;19.90;10.10;;;7.50;99.90;;;;;;5029787;28;20191;-57
2020/12/18 11:13:02;;;;;;;19.43;10.50;;;7.60;99.90;;;;;;5033829;28;20538;-53
2020/12/18 11:15:27;;;;;;;19.23;10.37;;;7.70;99.90;;;;;;5040147;28;20516;-56
2020/12/18 11:17:56;;;;;;;17.70;10.17;;;7.90;99.90;;;;;;5031291;28;21232;-54
2020/12/18 11:20:22;;;;;;;15.13;8.70;;;8.00;99.90;;;;;;5036312;28;20531;-58
2020/12/18 11:22:48;;;;;;;16.30;8.70;;;8.10;99.90;;;;;;5028785;28;20877;-55
2020/12/18 11:25:14;;;;;;;13.50;9.70;;;8.20;99.90;;;;;;5034144;28;20465;-56
2020/12/18 11:27:40;;;;;;;12.87;9.03;;;8.30;99.90;;;;;;5039096;28;20448;-55
2020/12/18 11:30:05;;;;;;;14.07;8.43;;;8.40;99.90;;;;;;5040809;28;21996;-57
2020/12/18 11:32:31;;;;;;;15.47;7.90;;;8.50;99.90;;;;;;5041856;28;20194;-57
2020/12/18 11:34:57;;;;;;;11.17;7.00;;;8.60;99.90;;;;;;5042098;28;20281;-57
2020/12/18 11:37:22;;;;;;;14.03;8.43;;;8.60;99.20;;;;;;5031994;28;20970;-59
2020/12/18 11:39:48;;;;;;;13.83;8.10;;;8.50;99.50;;;;;;5039618;28;20183;-61
2020/12/18 11:42:14;;;;;;;12.97;7.83;;;8.50;99.50;;;;;;5031941;28;20188;-55
2020/12/18 11:44:40;;;;;;;17.30;8.50;;;8.50;99.80;;;;;;5044364;28;20209;-59
2020/12/18 11:47:06;;;;;;;13.27;8.77;;;8.50;99.60;;;;;;5036579;28;20199;-56
2020/12/18 11:49:31;;;;;;;14.70;8.67;;;8.40;99.60;;;;;;5047393;28;20463;-56
2020/12/18 11:51:57;;;;;;;14.60;8.70;;;8.20;99.90;;;;;;5039257;28;20544;-57
2020/12/18 11:54:23;;;;;;;15.90;8.47;;;8.10;99.90;;;;;;5046381;28;20190;-58
2020/12/18 11:56:49;;;;;;;12.83;8.00;;;8.00;99.90;;;;;;5041472;28;20225;-56
2020/12/18 11:59:15;;;;;;;10.73;6.93;;;7.80;99.90;;;;;;5037979;28;20768;-57
2020/12/18 12:01:41;;;;;;;12.00;7.40;;;7.80;99.90;;;;;;5033384;28;20535;-56
2020/12/18 12:04:06;;;;;;;14.20;8.50;;;7.70;99.90;;;;;;5030693;28;20202;-55
2020/12/18 12:06:32;;;;;;;10.57;7.33;;;7.70;99.90;;;;;;5031614;28;20214;-56
2020/12/18 12:09:03;;;;;;;14.17;8.13;;;7.70;99.90;;;;;;5063070;22;20230;-69
2020/12/18 12:11:36;;;;;;;11.37;7.07;;;7.70;99.90;;;;;;5059483;28;20171;-63
2020/12/18 12:14:02;;;;;;;10.57;7.50;;;7.70;99.90;;;;;;5062967;28;20995;-67
2020/12/18 12:16:36;;;;;;;13.67;7.83;;;7.70;99.90;;;;;;5062825;28;20934;-68
2020/12/18 12:19:03;;;;;;;14.00;7.93;;;7.70;99.80;;;;;;5041397;28;20460;-63
2020/12/18 12:21:38;;;;;;;12.53;7.33;;;7.70;99.80;;;;;;5052581;28;20524;-65
2020/12/18 12:24:05;;;;;;;12.60;7.27;;;7.70;99.90;;;;;;5060531;28;20531;-64
2020/12/18 12:26:31;;;;;;;11.87;6.77;;;7.70;99.90;;;;;;5063948;28;20978;-66
2020/12/18 12:28:57;;;;;;;10.57;5.10;;;7.70;99.90;;;;;;5041416;28;20552;-62
2020/12/18 12:31:23;;;;;;;8.63;5.80;;;7.70;99.90;;;;;;5065497;28;20433;-64
2020/12/18 12:33:49;;;;;;;9.90;6.63;;;7.80;99.80;;;;;;5070778;28;20815;-64
2020/12/18 12:36:25;;;;;;;7.53;5.13;;;7.90;99.50;;;;;;5068387;28;20475;-62
2020/12/18 12:38:52;;;;;;;8.50;4.53;;;8.00;99.10;;;;;;5058647;28;20213;-66
2020/12/18 12:41:18;;;;;;;7.87;3.90;;;8.10;98.70;;;;;;5042245;28;20440;-66
2020/12/18 12:43:44;;;;;;;6.97;4.37;;;8.20;97.30;;;;;;5071701;28;20439;-63
2020/12/18 12:46:10;;;;;;;7.80;4.10;;;8.30;96.90;;;;;;5060965;28;20466;-64
2020/12/18 12:48:36;;;;;;;7.13;3.43;;;8.50;96.10;;;;;;5047499;28;20260;-66